createdAt,value
2019-02-16T00:00:16.959Z,83.23
2019-02-16T00:02:49.897Z,83.35
2019-02-16T00:05:21.208Z,83.48
2019-02-16T00:07:52.401Z,83.70
2019-02-16T00:10:23.547Z,83.54
2019-02-16T00:12:55.893Z,83.72
2019-02-16T00:15:27.026Z,84.17
2019-02-16T00:17:58.271Z,84.26
2019-02-16T00:20:29.387Z,84.33
2019-02-16T00:23:00.515Z,83.82
2019-02-16T00:25:31.794Z,83.53
2019-02-16T00:28:02.920Z,83.46
2019-02-16T00:30:34.118Z,83.59
2019-02-16T00:33:05.491Z,83.53
2019-02-16T00:35:36.642Z,83.82
2019-02-16T00:38:07.911Z,83.71
2019-02-16T00:40:39.156Z,83.88
2019-02-16T00:43:10.604Z,83.24
2019-02-16T00:45:41.751Z,83.39
2019-02-16T00:48:12.905Z,83.09
2019-02-16T00:50:44.065Z,82.96
2019-02-16T00:53:15.187Z,83.07
2019-02-16T00:55:46.673Z,83.00
2019-02-16T00:58:17.797Z,83.04
2019-02-16T01:00:49.428Z,83.16
2019-02-16T01:03:20.636Z,83.11
2019-02-16T01:05:51.866Z,83.22
2019-02-16T01:08:23.104Z,83.95
2019-02-16T01:10:55.361Z,84.28
2019-02-16T01:13:26.561Z,84.27
2019-02-16T01:15:57.984Z,83.99
2019-02-16T01:18:29.105Z,83.75
2019-02-16T01:21:00.339Z,83.63
2019-02-16T01:23:31.478Z,83.41
2019-02-16T01:26:02.957Z,82.86
2019-02-16T01:28:34.161Z,82.70
2019-02-16T01:31:05.389Z,82.25
2019-02-16T01:33:36.987Z,82.04
2019-02-16T01:36:08.108Z,81.86
2019-02-16T01:38:39.344Z,81.50
2019-02-16T01:41:10.555Z,81.48
2019-02-16T01:43:41.720Z,81.66
2019-02-16T01:46:13.107Z,82.29
2019-02-16T01:48:44.566Z,84.71
2019-02-16T01:51:16.403Z,85.00
2019-02-16T01:53:47.526Z,84.91
2019-02-16T01:56:18.820Z,85.05
2019-02-16T01:58:50.242Z,85.53
2019-02-16T02:01:21.462Z,85.19
2019-02-16T02:03:52.727Z,85.34
2019-02-16T02:06:25.013Z,86.36
2019-02-16T02:08:56.247Z,85.81
2019-02-16T02:11:27.448Z,85.93
2019-02-16T02:13:58.577Z,86.42
2019-02-16T02:16:29.714Z,85.92
2019-02-16T02:19:00.885Z,85.87
2019-02-16T02:21:40.655Z,86.48
2019-02-16T02:24:04.945Z,86.44
2019-02-16T02:26:36.183Z,86.53
2019-02-16T02:29:07.823Z,87.18
2019-02-16T02:31:38.967Z,87.97
2019-02-16T02:34:10.086Z,87.99
2019-02-16T02:36:41.738Z,88.12
2019-02-16T02:39:13.187Z,88.00
2019-02-16T02:41:44.321Z,88.22
2019-02-16T02:44:15.515Z,88.13
2019-02-16T02:46:46.734Z,86.88
2019-02-16T02:49:18.027Z,87.32
2019-02-16T02:51:52.507Z,87.61
2019-02-16T02:54:24.031Z,88.03
2019-02-16T02:56:55.251Z,88.62
2019-02-16T02:59:27.885Z,88.70
2019-02-16T03:01:59.228Z,89.84
2019-02-16T03:04:30.967Z,89.95
2019-02-16T03:07:02.263Z,88.85
2019-02-16T03:09:35.088Z,89.58
2019-02-16T03:12:07.010Z,90.26
2019-02-16T03:14:38.557Z,90.70
2019-02-16T03:17:09.935Z,90.69
2019-02-16T03:19:41.375Z,90.33
2019-02-16T03:22:12.630Z,90.17
2019-02-16T03:24:44.177Z,89.79
2019-02-16T03:27:57.767Z,89.13
2019-02-16T03:31:41.832Z,88.71
2019-02-16T03:34:20.138Z,89.22
2019-02-16T03:37:42.129Z,89.48
2019-02-16T03:40:13.766Z,88.75
2019-02-16T03:42:45.284Z,88.76
2019-02-16T03:45:18.062Z,87.80
2019-02-16T03:47:49.900Z,88.16
2019-02-16T03:50:21.482Z,88.40
2019-02-16T03:52:52.828Z,88.77
2019-02-16T03:55:24.293Z,88.21
2019-02-16T03:57:55.746Z,88.99
2019-02-16T04:00:27.146Z,88.42
2019-02-16T04:02:58.640Z,88.22
2019-02-16T04:05:30.002Z,89.54
2019-02-16T04:08:03.094Z,89.76
2019-02-16T04:10:34.491Z,89.82
2019-02-16T04:13:06.050Z,89.66
2019-02-16T04:15:37.690Z,89.02
2019-02-16T04:18:10.190Z,88.77
2019-02-16T04:20:41.445Z,89.01
2019-02-16T04:23:12.821Z,89.11
2019-02-16T04:25:44.154Z,89.36
2019-02-16T04:28:15.510Z,89.48
2019-02-16T04:30:46.927Z,89.50
2019-02-16T04:33:18.386Z,89.50
2019-02-16T04:35:50.147Z,89.44
2019-02-16T04:38:21.830Z,89.42
2019-02-16T04:40:53.308Z,89.19
2019-02-16T04:43:25.312Z,89.43
2019-02-16T04:45:56.917Z,88.77
2019-02-16T04:48:28.505Z,88.75
2019-02-16T04:50:59.927Z,88.75
2019-02-16T04:53:31.377Z,89.36
2019-02-16T04:56:03.143Z,89.53
2019-02-16T04:58:34.566Z,89.58
2019-02-16T05:01:06.346Z,89.73
2019-02-16T05:03:38.117Z,89.71
2019-02-16T05:06:10.512Z,89.77
2019-02-16T05:08:42.034Z,89.92
2019-02-16T05:11:13.392Z,90.04
2019-02-16T05:13:44.816Z,90.00
2019-02-16T05:16:16.671Z,90.39
2019-02-16T05:18:47.958Z,90.69
2019-02-16T05:21:19.266Z,90.73
2019-02-16T05:23:51.352Z,90.11
2019-02-16T05:26:22.897Z,88.17
2019-02-16T05:28:54.300Z,88.06
2019-02-16T05:31:25.638Z,88.72
2019-02-16T05:33:57.579Z,89.19
2019-02-16T05:36:28.932Z,89.59
2019-02-16T05:39:00.382Z,89.70
2019-02-16T05:41:32.269Z,89.76
2019-02-16T05:44:03.957Z,89.77
2019-02-16T05:46:35.362Z,90.07
2019-02-16T05:49:06.914Z,90.26
2019-02-16T05:51:38.493Z,90.44
2019-02-16T05:54:10.227Z,90.29
2019-02-16T05:56:41.789Z,90.52
2019-02-16T05:59:13.092Z,90.61
2019-02-16T06:01:53.588Z,90.32
2019-02-16T06:04:18.204Z,90.53
2019-02-16T06:06:50.659Z,90.43
2019-02-16T06:09:25.284Z,90.42
2019-02-16T06:11:56.727Z,90.29
2019-02-16T06:14:28.347Z,90.42
2019-02-16T06:16:59.875Z,90.87
2019-02-16T06:19:31.215Z,91.11
2019-02-16T06:22:02.639Z,90.15
2019-02-16T06:24:34.041Z,89.43
2019-02-16T06:27:05.309Z,89.11
2019-02-16T06:29:36.970Z,89.24
2019-02-16T06:32:08.398Z,89.49
2019-02-16T06:34:39.890Z,89.19
2019-02-16T06:37:24.628Z,89.76
2019-02-16T06:39:56.233Z,89.61
2019-02-16T06:42:27.980Z,89.90
2019-02-16T06:44:59.881Z,89.60
2019-02-16T06:47:31.213Z,90.17
2019-02-16T06:50:02.786Z,90.45
2019-02-16T06:52:34.300Z,90.82
2019-02-16T06:55:05.803Z,90.56
2019-02-16T06:57:37.458Z,90.60
2019-02-16T07:00:11.070Z,90.49
2019-02-16T07:02:42.268Z,90.29
2019-02-16T07:05:13.625Z,90.28
2019-02-16T07:07:45.120Z,90.29
2019-02-16T07:10:16.485Z,90.15
2019-02-16T07:12:47.850Z,89.62
2019-02-16T07:15:19.231Z,89.27
2019-02-16T07:17:53.798Z,88.91
2019-02-16T07:20:25.886Z,86.55
2019-02-16T07:22:57.305Z,85.14
2019-02-16T07:25:28.768Z,84.59
2019-02-16T07:28:00.257Z,82.98
2019-02-16T07:30:32.119Z,80.99
2019-02-16T07:33:03.628Z,79.81
2019-02-16T07:35:35.214Z,78.96
2019-02-16T07:38:06.635Z,78.95
2019-02-16T07:40:38.065Z,77.92
2019-02-16T07:43:14.615Z,76.34
2019-02-16T07:45:56.403Z,76.56
2019-02-16T07:48:52.923Z,76.60
2019-02-16T07:51:49.030Z,75.21
2019-02-16T07:54:32.321Z,74.68
2019-02-16T07:57:11.512Z,74.87
2019-02-16T08:00:02.940Z,74.45
2019-02-16T08:02:52.467Z,73.46
2019-02-16T08:05:41.748Z,72.37
2019-02-16T08:08:32.735Z,70.73
2019-02-16T08:11:32.330Z,71.34
2019-02-16T08:14:10.927Z,70.17
2019-02-16T08:16:54.211Z,68.13
2019-02-16T08:19:50.481Z,68.49
2019-02-16T08:22:28.860Z,67.97
2019-02-16T08:25:27.250Z,68.45
2019-02-16T08:28:16.156Z,68.25
2019-02-16T08:31:00.942Z,66.05
2019-02-16T08:33:44.391Z,64.01
2019-02-16T08:36:22.558Z,64.02
2019-02-16T08:39:17.961Z,63.99
2019-02-16T08:42:00.077Z,63.41
2019-02-16T08:44:53.234Z,64.36
2019-02-16T08:47:41.980Z,62.72
2019-02-16T08:50:38.357Z,61.96
2019-02-16T08:53:33.818Z,61.19
2019-02-16T08:56:33.381Z,59.58
2019-02-16T08:59:26.607Z,59.25
2019-02-16T09:02:25.981Z,57.76
2019-02-16T09:05:01.826Z,57.72
2019-02-16T09:08:04.128Z,55.21
2019-02-16T09:10:55.879Z,56.47
2019-02-16T09:13:42.329Z,56.14
2019-02-16T09:16:31.308Z,55.46
2019-02-16T09:19:20.694Z,55.42
2019-02-16T09:22:13.791Z,54.60
2019-02-16T09:25:07.141Z,55.52
2019-02-16T09:27:44.399Z,55.00
2019-02-16T09:30:46.803Z,55.13
2019-02-16T09:33:37.125Z,55.44
2019-02-16T09:36:13.775Z,53.83
2019-02-16T09:39:03.002Z,55.60
2019-02-16T09:42:00.655Z,56.41
2019-02-16T09:44:54.413Z,57.04
2019-02-16T09:47:43.824Z,54.61
2019-02-16T09:50:28.205Z,54.66
2019-02-16T09:53:18.742Z,53.27
2019-02-16T09:56:06.281Z,52.64
2019-02-16T09:58:55.806Z,52.24
2019-02-16T10:01:46.102Z,50.66
2019-02-16T10:04:39.559Z,48.64
2019-02-16T10:07:30.599Z,49.33
2019-02-16T10:10:21.026Z,49.82
2019-02-16T10:13:00.461Z,50.63
2019-02-16T10:15:49.554Z,51.21
2019-02-16T10:18:40.515Z,51.17
2019-02-16T10:21:33.281Z,50.27
2019-02-16T10:24:17.969Z,48.57
2019-02-16T10:27:07.222Z,48.48
2019-02-16T10:29:57.495Z,47.93
2019-02-16T10:32:46.752Z,48.25
2019-02-16T10:35:46.382Z,47.54
2019-02-16T10:38:34.102Z,46.41
2019-02-16T10:41:26.122Z,45.34
2019-02-16T10:44:20.375Z,44.98
2019-02-16T10:47:06.794Z,45.02
2019-02-16T10:50:00.326Z,45.56
2019-02-16T10:52:48.309Z,46.22
2019-02-16T10:55:57.032Z,44.74
2019-02-16T10:58:50.067Z,44.56
2019-02-16T11:01:43.677Z,45.72
2019-02-16T11:04:38.177Z,45.79
2019-02-16T11:07:25.492Z,45.56
2019-02-16T11:10:04.407Z,47.64
2019-02-16T11:12:54.738Z,50.74
2019-02-16T11:15:35.889Z,51.00
2019-02-16T11:18:25.238Z,47.94
2019-02-16T11:21:23.560Z,47.89
2019-02-16T11:24:12.287Z,46.75
2019-02-16T11:27:15.057Z,46.04
2019-02-16T11:29:55.530Z,43.98
2019-02-16T11:32:53.307Z,43.44
2019-02-16T11:35:46.925Z,44.37
2019-02-16T11:38:36.256Z,44.63
2019-02-16T11:41:44.898Z,42.88
2019-02-16T11:44:22.444Z,41.78
2019-02-16T11:47:15.567Z,43.07
2019-02-16T11:50:04.564Z,43.05
2019-02-16T11:52:53.609Z,42.37
2019-02-16T11:55:40.003Z,43.21
2019-02-16T11:58:36.399Z,41.96
2019-02-16T12:01:18.040Z,42.69
2019-02-16T12:03:57.691Z,42.26
2019-02-16T12:06:51.035Z,41.46
2019-02-16T12:09:40.931Z,39.91
2019-02-16T12:12:29.876Z,40.27
2019-02-16T12:15:19.182Z,39.33
2019-02-16T12:18:15.322Z,38.68
2019-02-16T12:20:58.224Z,40.22
2019-02-16T12:24:00.390Z,40.91
2019-02-16T12:26:42.899Z,40.59
2019-02-16T12:29:24.006Z,41.36
2019-02-16T12:32:32.552Z,40.52
2019-02-16T12:35:31.916Z,41.08
2019-02-16T12:38:28.312Z,42.23
2019-02-16T12:41:07.748Z,41.94
2019-02-16T12:43:48.038Z,40.07
2019-02-16T12:46:37.215Z,39.43
2019-02-16T12:49:37.848Z,38.78
2019-02-16T12:52:23.955Z,37.63
2019-02-16T12:55:14.377Z,38.51
2019-02-16T12:57:44.341Z,39.14
2019-02-16T13:00:21.113Z,39.96
2019-02-16T13:03:09.417Z,40.39
2019-02-16T13:06:15.226Z,39.01
2019-02-16T13:09:01.692Z,37.17
2019-02-16T13:11:52.623Z,37.52
2019-02-16T13:14:42.873Z,38.01
2019-02-16T13:17:26.048Z,37.60
2019-02-16T13:20:22.320Z,36.21
2019-02-16T13:24:08.968Z,35.93
2019-02-16T13:26:29.332Z,37.22
2019-02-16T13:29:09.740Z,37.30
2019-02-16T13:32:03.015Z,36.55
2019-02-16T13:34:56.332Z,38.82
2019-02-16T13:37:33.424Z,37.59
2019-02-16T13:40:22.968Z,35.94
2019-02-16T13:43:13.753Z,36.52
2019-02-16T13:46:04.194Z,36.44
2019-02-16T13:48:54.989Z,35.46
2019-02-16T13:51:33.290Z,37.35
2019-02-16T13:54:13.086Z,37.41
2019-02-16T13:57:03.347Z,34.46
2019-02-16T13:59:57.666Z,34.39
2019-02-16T14:02:51.524Z,34.93
2019-02-16T14:05:40.309Z,35.31
2019-02-16T14:08:20.021Z,35.59
2019-02-16T14:10:57.109Z,34.56
2019-02-16T14:13:47.407Z,35.35
2019-02-16T14:16:32.231Z,34.59
2019-02-16T14:19:04.745Z,34.17
2019-02-16T14:21:36.088Z,33.34
2019-02-16T14:24:07.489Z,34.46
2019-02-16T14:26:38.813Z,35.05
2019-02-16T14:29:10.202Z,34.67
2019-02-16T14:31:41.510Z,33.40
2019-02-16T14:34:12.918Z,32.95
2019-02-16T14:36:45.528Z,35.48
2019-02-16T14:39:28.248Z,36.77
2019-02-16T14:41:59.939Z,37.08
2019-02-16T14:44:31.349Z,36.76
2019-02-16T14:47:02.795Z,36.64
2019-02-16T14:49:34.113Z,36.38
2019-02-16T14:52:05.577Z,37.23
2019-02-16T14:54:36.948Z,37.30
2019-02-16T14:57:08.617Z,37.22
2019-02-16T14:59:39.836Z,38.18
2019-02-16T15:02:11.180Z,38.14
2019-02-16T15:04:42.567Z,38.07
2019-02-16T15:07:14.070Z,38.45
2019-02-16T15:09:45.632Z,39.88
2019-02-16T15:12:17.044Z,40.06
2019-02-16T15:14:48.319Z,41.36
2019-02-16T15:17:19.519Z,41.08
2019-02-16T15:19:50.940Z,42.88
2019-02-16T15:22:22.242Z,43.59
2019-02-16T15:24:53.606Z,43.36
2019-02-16T15:27:25.068Z,44.65
2019-02-16T15:29:56.411Z,45.21
2019-02-16T15:32:27.990Z,45.95
2019-02-16T15:34:59.732Z,46.69
2019-02-16T15:37:31.254Z,47.86
2019-02-16T15:40:02.762Z,50.21
2019-02-16T15:42:34.328Z,52.79
2019-02-16T15:45:07.351Z,51.98
2019-02-16T15:47:38.682Z,51.35
2019-02-16T15:50:12.125Z,51.83
2019-02-16T15:52:43.887Z,52.15
2019-02-16T15:55:15.230Z,52.98
2019-02-16T15:57:46.869Z,52.56
2019-02-16T16:00:27.044Z,53.34
2019-02-16T16:02:59.713Z,53.89
2019-02-16T16:05:31.113Z,55.88
2019-02-16T16:08:21.385Z,57.57
2019-02-16T16:11:14.684Z,58.31
2019-02-16T16:14:11.235Z,57.94
2019-02-16T16:17:09.741Z,57.88
2019-02-16T16:19:53.187Z,59.68
2019-02-16T16:22:43.850Z,61.92
2019-02-16T16:25:37.270Z,64.09
2019-02-16T16:28:37.610Z,66.27
2019-02-16T16:31:40.366Z,66.85
2019-02-16T16:34:24.702Z,67.01
2019-02-16T16:37:08.302Z,66.63
2019-02-16T16:40:02.849Z,67.29
2019-02-16T16:42:52.582Z,67.98
2019-02-16T16:45:42.598Z,69.34
2019-02-16T16:48:42.141Z,69.88
2019-02-16T16:51:42.305Z,74.34
2019-02-16T16:54:35.542Z,74.54
2019-02-16T16:57:15.796Z,73.39
2019-02-16T17:00:08.858Z,73.57
2019-02-16T17:02:57.393Z,72.19
2019-02-16T17:05:46.433Z,72.30
2019-02-16T17:08:26.101Z,72.38
2019-02-16T17:11:10.682Z,73.37
2019-02-16T17:14:04.104Z,73.59
2019-02-16T17:16:50.700Z,73.31
2019-02-16T17:19:30.705Z,72.86
2019-02-16T17:22:19.871Z,73.12
2019-02-16T17:25:16.083Z,72.81
2019-02-16T17:27:56.786Z,73.48
2019-02-16T17:30:45.735Z,73.29
2019-02-16T17:33:23.795Z,73.27
2019-02-16T17:36:25.790Z,73.17
2019-02-16T17:39:12.573Z,73.83
2019-02-16T17:42:00.601Z,74.67
2019-02-16T17:44:49.824Z,74.97
2019-02-16T17:47:43.793Z,74.65
2019-02-16T17:50:22.113Z,76.35
2019-02-16T17:53:07.656Z,76.84
2019-02-16T17:55:48.959Z,76.95
2019-02-16T17:58:44.108Z,76.78
2019-02-16T18:01:37.877Z,76.65
2019-02-16T18:04:32.487Z,77.75
2019-02-16T18:07:23.134Z,78.28
2019-02-16T18:10:16.944Z,78.08
2019-02-16T18:13:06.195Z,77.85
2019-02-16T18:16:15.037Z,77.18
2019-02-16T18:18:58.585Z,77.23
2019-02-16T18:22:01.229Z,78.25
2019-02-16T18:24:48.041Z,78.44
2019-02-16T18:27:43.945Z,77.67
2019-02-16T18:30:40.492Z,78.79
2019-02-16T18:33:33.780Z,78.54
2019-02-16T18:36:14.846Z,79.11
2019-02-16T18:39:04.447Z,79.61
2019-02-16T18:41:44.877Z,80.09
2019-02-16T18:44:47.232Z,78.77
2019-02-16T18:47:35.860Z,77.81
2019-02-16T18:50:16.908Z,79.01
2019-02-16T18:53:13.004Z,79.11
2019-02-16T18:55:53.065Z,79.50
2019-02-16T18:59:01.386Z,80.91
2019-02-16T19:01:57.854Z,79.85
2019-02-16T19:04:54.122Z,80.31
2019-02-16T19:07:32.684Z,80.17
2019-02-16T19:10:26.025Z,79.97
2019-02-16T19:13:26.732Z,80.10
2019-02-16T19:16:10.252Z,79.11
2019-02-16T19:18:54.042Z,79.24
2019-02-16T19:21:43.129Z,80.14
2019-02-16T19:24:21.442Z,80.60
2019-02-16T19:27:03.975Z,80.58
2019-02-16T19:29:42.475Z,80.61
2019-02-16T19:32:32.703Z,79.86
2019-02-16T19:35:13.626Z,80.25
2019-02-16T19:38:09.793Z,80.71
2019-02-16T19:40:59.183Z,81.36
2019-02-16T19:43:42.026Z,79.70
2019-02-16T19:46:38.034Z,79.43
2019-02-16T19:49:26.737Z,80.17
2019-02-16T19:52:08.422Z,79.94
2019-02-16T19:55:05.432Z,79.66
2019-02-16T19:58:01.338Z,80.03
2019-02-16T20:00:57.748Z,79.88
2019-02-16T20:03:41.768Z,80.01
2019-02-16T20:06:38.451Z,80.04
2019-02-16T20:09:41.339Z,78.97
2019-02-16T20:12:46.750Z,79.04
2019-02-16T20:15:52.312Z,80.22
2019-02-16T20:18:48.614Z,80.48
2019-02-16T20:21:47.689Z,81.04
2019-02-16T20:24:38.593Z,80.16
2019-02-16T20:27:36.727Z,80.75
2019-02-16T20:30:18.588Z,80.73
2019-02-16T20:33:04.791Z,81.16
2019-02-16T20:35:42.823Z,80.20
2019-02-16T20:38:33.400Z,81.25
2019-02-16T20:41:41.968Z,81.36
2019-02-16T20:44:23.114Z,82.31
2019-02-16T20:47:22.167Z,83.35
2019-02-16T20:50:18.476Z,83.88
2019-02-16T20:53:03.396Z,82.79
2019-02-16T20:55:46.816Z,83.11
2019-02-16T20:58:28.336Z,82.29
2019-02-16T21:01:34.014Z,82.09
2019-02-16T21:04:24.463Z,82.21
2019-02-16T21:07:27.070Z,82.72
2019-02-16T21:10:20.278Z,82.30
2019-02-16T21:12:59.338Z,81.49
2019-02-16T21:16:08.141Z,82.15
2019-02-16T21:19:06.029Z,82.48
2019-02-16T21:21:59.311Z,83.11
2019-02-16T21:24:39.970Z,82.49
2019-02-16T21:27:24.599Z,82.67
2019-02-16T21:30:08.170Z,82.89
2019-02-16T21:32:55.015Z,82.66
2019-02-16T21:35:44.162Z,83.35
2019-02-16T21:38:36.076Z,84.15
2019-02-16T21:41:26.334Z,83.49
2019-02-16T21:44:25.667Z,82.47
2019-02-16T21:47:06.085Z,83.38
2019-02-16T21:50:08.402Z,84.15
2019-02-16T21:52:58.660Z,82.78
2019-02-16T21:55:45.229Z,82.41
2019-02-16T21:58:29.967Z,84.31
2019-02-16T22:01:11.680Z,84.49
2019-02-16T22:04:11.270Z,84.39
2019-02-16T22:07:00.911Z,83.68
2019-02-16T22:09:50.530Z,83.97
2019-02-16T22:12:30.458Z,83.25
2019-02-16T22:15:02.609Z,83.97
2019-02-16T22:17:34.472Z,84.69
2019-02-16T22:20:06.262Z,83.08
2019-02-16T22:22:38.849Z,84.61
2019-02-16T22:25:10.405Z,84.40
2019-02-16T22:27:41.809Z,85.96
2019-02-16T22:30:13.567Z,84.64
2019-02-16T22:32:44.892Z,85.36
2019-02-16T22:35:16.217Z,85.79
2019-02-16T22:37:47.750Z,84.61
2019-02-16T22:40:19.557Z,85.09
2019-02-16T22:42:50.935Z,85.62
2019-02-16T22:45:22.633Z,85.32
2019-02-16T22:47:54.019Z,84.63
2019-02-16T22:50:25.794Z,84.44
2019-02-16T22:52:57.204Z,84.95
2019-02-16T22:55:28.535Z,85.55
2019-02-16T22:57:59.883Z,86.25
2019-02-16T23:00:45.092Z,86.63
2019-02-16T23:03:18.304Z,86.61
2019-02-16T23:05:49.987Z,85.40
2019-02-16T23:08:21.521Z,86.11
2019-02-16T23:10:52.860Z,87.07
2019-02-16T23:13:24.364Z,84.50
2019-02-16T23:15:55.721Z,84.64
2019-02-16T23:18:27.484Z,85.34
2019-02-16T23:20:58.772Z,85.77
2019-02-16T23:23:30.076Z,86.67
2019-02-16T23:26:01.431Z,87.02
2019-02-16T23:28:39.017Z,87.40
2019-02-16T23:31:06.484Z,87.89
2019-02-16T23:33:37.920Z,88.28
2019-02-16T23:36:09.211Z,89.19
2019-02-16T23:38:42.162Z,88.81
2019-02-16T23:41:13.639Z,88.59
2019-02-16T23:43:46.130Z,88.83
2019-02-16T23:46:17.709Z,89.37
2019-02-16T23:48:48.910Z,89.33
2019-02-16T23:51:20.305Z,88.71
2019-02-16T23:53:51.952Z,88.27
2019-02-16T23:56:23.568Z,88.36
2019-02-16T23:58:54.899Z,88.45
